sensor_id;sensor_type;location;lat;lon;timestamp;P1;durP1;ratioP1;P2;durP2;ratioP2
49376;SDS011;35253;34.688;33.040;2023-11-19T00:00:31;15.25;;;3.88;;
49376;SDS011;35253;34.688;33.040;2023-11-19T00:02:56;14.85;;;4.35;;
49376;SDS011;35253;34.688;33.040;2023-11-19T00:05:22;31.33;;;12.45;;
49376;SDS011;35253;34.688;33.040;2023-11-19T00:07:47;36.50;;;20.17;;
49376;SDS011;35253;34.688;33.040;2023-11-19T00:10:14;13.05;;;5.50;;
49376;SDS011;35253;34.688;33.040;2023-11-19T00:12:46;16.02;;;5.68;;
49376;SDS011;35253;34.688;33.040;2023-11-19T00:15:13;13.77;;;4.38;;
49376;SDS011;35253;34.688;33.040;2023-11-19T00:17:40;10.63;;;2.28;;
49376;SDS011;35253;34.688;33.040;2023-11-19T00:20:19;18.75;;;5.22;;
49376;SDS011;35253;34.688;33.040;2023-11-19T00:22:47;14.93;;;4.35;;
49376;SDS011;35253;34.688;33.040;2023-11-19T00:25:19;8.75;;;1.95;;
49376;SDS011;35253;34.688;33.040;2023-11-19T00:27:46;12.60;;;5.05;;
49376;SDS011;35253;34.688;33.040;2023-11-19T00:30:13;14.88;;;4.47;;
49376;SDS011;35253;34.688;33.040;2023-11-19T00:32:39;13.68;;;5.40;;
49376;SDS011;35253;34.688;33.040;2023-11-19T00:35:06;14.68;;;5.82;;
49376;SDS011;35253;34.688;33.040;2023-11-19T00:37:35;10.95;;;2.47;;
49376;SDS011;35253;34.688;33.040;2023-11-19T00:40:01;14.00;;;5.32;;
49376;SDS011;35253;34.688;33.040;2023-11-19T00:42:30;26.95;;;9.07;;
49376;SDS011;35253;34.688;33.040;2023-11-19T00:44:56;21.70;;;5.28;;
49376;SDS011;35253;34.688;33.040;2023-11-19T00:47:23;27.05;;;11.32;;
49376;SDS011;35253;34.688;33.040;2023-11-19T00:49:48;29.95;;;12.13;;
49376;SDS011;35253;34.688;33.040;2023-11-19T00:52:15;22.95;;;7.20;;
49376;SDS011;35253;34.688;33.040;2023-11-19T00:54:41;17.63;;;5.28;;
49376;SDS011;35253;34.688;33.040;2023-11-19T00:57:07;11.02;;;3.00;;
49376;SDS011;35253;34.688;33.040;2023-11-19T00:59:32;12.65;;;2.88;;
49376;SDS011;35253;34.688;33.040;2023-11-19T01:01:58;9.60;;;3.38;;
49376;SDS011;35253;34.688;33.040;2023-11-19T01:04:28;15.63;;;4.28;;
49376;SDS011;35253;34.688;33.040;2023-11-19T01:06:54;20.17;;;5.03;;
49376;SDS011;35253;34.688;33.040;2023-11-19T01:09:20;16.13;;;5.45;;
49376;SDS011;35253;34.688;33.040;2023-11-19T01:11:45;20.77;;;4.97;;
49376;SDS011;35253;34.688;33.040;2023-11-19T01:14:11;26.77;;;8.40;;
49376;SDS011;35253;34.688;33.040;2023-11-19T01:16:37;15.23;;;4.60;;
49376;SDS011;35253;34.688;33.040;2023-11-19T01:19:02;9.20;;;3.08;;
49376;SDS011;35253;34.688;33.040;2023-11-19T01:21:30;21.40;;;5.43;;
49376;SDS011;35253;34.688;33.040;2023-11-19T01:23:56;13.23;;;4.30;;
49376;SDS011;35253;34.688;33.040;2023-11-19T01:26:23;13.38;;;4.38;;
49376;SDS011;35253;34.688;33.040;2023-11-19T01:28:49;11.95;;;3.97;;
49376;SDS011;35253;34.688;33.040;2023-11-19T01:31:17;12.60;;;3.63;;
49376;SDS011;35253;34.688;33.040;2023-11-19T01:33:43;13.55;;;3.50;;
49376;SDS011;35253;34.688;33.040;2023-11-19T01:36:09;17.25;;;2.88;;
49376;SDS011;35253;34.688;33.040;2023-11-19T01:38:37;12.20;;;2.67;;
49376;SDS011;35253;34.688;33.040;2023-11-19T01:41:03;9.35;;;2.45;;
49376;SDS011;35253;34.688;33.040;2023-11-19T01:43:36;11.40;;;2.50;;
49376;SDS011;35253;34.688;33.040;2023-11-19T01:46:04;9.52;;;3.80;;
49376;SDS011;35253;34.688;33.040;2023-11-19T01:48:34;23.20;;;2.90;;
49376;SDS011;35253;34.688;33.040;2023-11-19T01:51:05;9.23;;;2.63;;
49376;SDS011;35253;34.688;33.040;2023-11-19T01:53:33;12.98;;;4.13;;
49376;SDS011;35253;34.688;33.040;2023-11-19T01:56:01;14.25;;;2.50;;
49376;SDS011;35253;34.688;33.040;2023-11-19T01:58:28;9.73;;;2.88;;
49376;SDS011;35253;34.688;33.040;2023-11-19T02:00:55;7.18;;;3.00;;
49376;SDS011;35253;34.688;33.040;2023-11-19T02:03:21;7.22;;;2.10;;
49376;SDS011;35253;34.688;33.040;2023-11-19T02:05:51;6.72;;;2.55;;
49376;SDS011;35253;34.688;33.040;2023-11-19T02:08:18;14.50;;;3.03;;
49376;SDS011;35253;34.688;33.040;2023-11-19T02:10:44;14.40;;;2.72;;
49376;SDS011;35253;34.688;33.040;2023-11-19T02:13:10;10.70;;;2.40;;
49376;SDS011;35253;34.688;33.040;2023-11-19T02:15:36;9.52;;;2.40;;
49376;SDS011;35253;34.688;33.040;2023-11-19T02:18:17;15.45;;;2.42;;
49376;SDS011;35253;34.688;33.040;2023-11-19T02:20:47;11.70;;;2.67;;
49376;SDS011;35253;34.688;33.040;2023-11-19T02:23:16;12.43;;;2.83;;
49376;SDS011;35253;34.688;33.040;2023-11-19T02:25:43;13.88;;;2.92;;
49376;SDS011;35253;34.688;33.040;2023-11-19T02:28:10;9.38;;;2.67;;
49376;SDS011;35253;34.688;33.040;2023-11-19T02:30:37;9.20;;;1.83;;
49376;SDS011;35253;34.688;33.040;2023-11-19T02:33:03;29.45;;;4.35;;
49376;SDS011;35253;34.688;33.040;2023-11-19T02:35:30;7.90;;;1.40;;
49376;SDS011;35253;34.688;33.040;2023-11-19T02:37:57;7.22;;;1.85;;
49376;SDS011;35253;34.688;33.040;2023-11-19T02:40:27;10.60;;;1.40;;
49376;SDS011;35253;34.688;33.040;2023-11-19T02:42:54;10.27;;;1.88;;
49376;SDS011;35253;34.688;33.040;2023-11-19T02:45:21;11.70;;;1.77;;
49376;SDS011;35253;34.688;33.040;2023-11-19T02:47:48;9.25;;;1.90;;
49376;SDS011;35253;34.688;33.040;2023-11-19T02:50:13;11.73;;;1.42;;
49376;SDS011;35253;34.688;33.040;2023-11-19T02:52:40;10.40;;;1.45;;
49376;SDS011;35253;34.688;33.040;2023-11-19T02:55:07;6.28;;;1.65;;
49376;SDS011;35253;34.688;33.040;2023-11-19T02:57:43;7.82;;;1.63;;
49376;SDS011;35253;34.688;33.040;2023-11-19T03:00:17;9.10;;;1.33;;
49376;SDS011;35253;34.688;33.040;2023-11-19T03:02:44;6.60;;;2.03;;
49376;SDS011;35253;34.688;33.040;2023-11-19T03:05:19;7.22;;;1.20;;
49376;SDS011;35253;34.688;33.040;2023-11-19T03:07:44;7.00;;;1.45;;
49376;SDS011;35253;34.688;33.040;2023-11-19T03:10:10;11.20;;;2.67;;
49376;SDS011;35253;34.688;33.040;2023-11-19T03:12:43;9.77;;;1.40;;
49376;SDS011;35253;34.688;33.040;2023-11-19T03:15:10;6.70;;;1.13;;
49376;SDS011;35253;34.688;33.040;2023-11-19T03:17:40;11.20;;;1.92;;
49376;SDS011;35253;34.688;33.040;2023-11-19T03:20:10;8.27;;;1.17;;
49376;SDS011;35253;34.688;33.040;2023-11-19T03:22:42;14.07;;;1.92;;
49376;SDS011;35253;34.688;33.040;2023-11-19T03:25:09;8.70;;;1.48;;
49376;SDS011;35253;34.688;33.040;2023-11-19T03:27:35;12.40;;;1.95;;
49376;SDS011;35253;34.688;33.040;2023-11-19T03:30:02;6.20;;;1.38;;
49376;SDS011;35253;34.688;33.040;2023-11-19T03:32:30;7.30;;;2.08;;
49376;SDS011;35253;34.688;33.040;2023-11-19T03:34:57;7.32;;;1.15;;
49376;SDS011;35253;34.688;33.040;2023-11-19T03:37:23;10.50;;;1.90;;
49376;SDS011;35253;34.688;33.040;2023-11-19T03:39:49;10.27;;;1.83;;
49376;SDS011;35253;34.688;33.040;2023-11-19T03:42:14;7.63;;;1.50;;
49376;SDS011;35253;34.688;33.040;2023-11-19T03:44:40;11.23;;;1.55;;
49376;SDS011;35253;34.688;33.040;2023-11-19T03:47:06;8.27;;;1.48;;
49376;SDS011;35253;34.688;33.040;2023-11-19T03:49:31;8.93;;;1.33;;
49376;SDS011;35253;34.688;33.040;2023-11-19T03:51:57;6.10;;;1.30;;
49376;SDS011;35253;34.688;33.040;2023-11-19T03:54:23;8.18;;;1.58;;
49376;SDS011;35253;34.688;33.040;2023-11-19T03:56:48;9.02;;;1.27;;
49376;SDS011;35253;34.688;33.040;2023-11-19T03:59:14;6.05;;;1.60;;
49376;SDS011;35253;34.688;33.040;2023-11-19T04:01:40;8.77;;;1.30;;
49376;SDS011;35253;34.688;33.040;2023-11-19T04:04:06;6.45;;;2.35;;
49376;SDS011;35253;34.688;33.040;2023-11-19T04:06:32;8.45;;;1.75;;
49376;SDS011;35253;34.688;33.040;2023-11-19T04:08:57;5.05;;;1.23;;
49376;SDS011;35253;34.688;33.040;2023-11-19T04:11:23;9.02;;;2.85;;
49376;SDS011;35253;34.688;33.040;2023-11-19T04:13:49;4.28;;;1.23;;
49376;SDS011;35253;34.688;33.040;2023-11-19T04:16:14;6.80;;;1.42;;
49376;SDS011;35253;34.688;33.040;2023-11-19T04:18:40;10.68;;;2.38;;
49376;SDS011;35253;34.688;33.040;2023-11-19T04:21:06;13.38;;;2.17;;
49376;SDS011;35253;34.688;33.040;2023-11-19T04:23:33;5.32;;;1.88;;
49376;SDS011;35253;34.688;33.040;2023-11-19T04:26:01;12.63;;;1.50;;
49376;SDS011;35253;34.688;33.040;2023-11-19T04:28:27;3.53;;;1.00;;
49376;SDS011;35253;34.688;33.040;2023-11-19T04:30:53;6.40;;;0.93;;
49376;SDS011;35253;34.688;33.040;2023-11-19T04:33:19;6.45;;;1.38;;
49376;SDS011;35253;34.688;33.040;2023-11-19T04:35:45;9.07;;;1.70;;
49376;SDS011;35253;34.688;33.040;2023-11-19T04:38:11;7.90;;;1.48;;
49376;SDS011;35253;34.688;33.040;2023-11-19T04:40:36;8.90;;;1.60;;
49376;SDS011;35253;34.688;33.040;2023-11-19T04:43:02;8.80;;;1.58;;
49376;SDS011;35253;34.688;33.040;2023-11-19T04:45:27;17.90;;;1.30;;
49376;SDS011;35253;34.688;33.040;2023-11-19T04:47:53;8.30;;;1.65;;
49376;SDS011;35253;34.688;33.040;2023-11-19T04:50:18;7.32;;;1.02;;
49376;SDS011;35253;34.688;33.040;2023-11-19T04:52:44;12.23;;;1.80;;
49376;SDS011;35253;34.688;33.040;2023-11-19T04:55:10;8.50;;;1.33;;
49376;SDS011;35253;34.688;33.040;2023-11-19T04:57:37;8.93;;;2.17;;
49376;SDS011;35253;34.688;33.040;2023-11-19T05:00:03;8.27;;;1.70;;
49376;SDS011;35253;34.688;33.040;2023-11-19T05:02:30;9.15;;;0.88;;
49376;SDS011;35253;34.688;33.040;2023-11-19T05:04:56;5.53;;;0.88;;
49376;SDS011;35253;34.688;33.040;2023-11-19T05:07:22;8.73;;;2.75;;
49376;SDS011;35253;34.688;33.040;2023-11-19T05:09:48;7.53;;;1.63;;
49376;SDS011;35253;34.688;33.040;2023-11-19T05:12:14;5.25;;;1.05;;
49376;SDS011;35253;34.688;33.040;2023-11-19T05:14:40;7.25;;;1.02;;
49376;SDS011;35253;34.688;33.040;2023-11-19T05:17:05;4.68;;;2.63;;
49376;SDS011;35253;34.688;33.040;2023-11-19T05:19:32;6.47;;;2.17;;
49376;SDS011;35253;34.688;33.040;2023-11-19T05:21:58;11.70;;;1.88;;
49376;SDS011;35253;34.688;33.040;2023-11-19T05:24:24;7.47;;;2.15;;
49376;SDS011;35253;34.688;33.040;2023-11-19T05:26:49;10.00;;;1.83;;
49376;SDS011;35253;34.688;33.040;2023-11-19T05:29:16;6.53;;;1.83;;
49376;SDS011;35253;34.688;33.040;2023-11-19T05:31:41;10.90;;;1.75;;
49376;SDS011;35253;34.688;33.040;2023-11-19T05:34:07;10.02;;;2.20;;
49376;SDS011;35253;34.688;33.040;2023-11-19T05:36:33;9.07;;;3.40;;
49376;SDS011;35253;34.688;33.040;2023-11-19T05:38:58;5.22;;;1.60;;
49376;SDS011;35253;34.688;33.040;2023-11-19T05:41:24;6.35;;;1.85;;
49376;SDS011;35253;34.688;33.040;2023-11-19T05:43:49;10.07;;;4.15;;
49376;SDS011;35253;34.688;33.040;2023-11-19T05:46:15;11.63;;;3.85;;
49376;SDS011;35253;34.688;33.040;2023-11-19T05:48:41;4.75;;;1.75;;
49376;SDS011;35253;34.688;33.040;2023-11-19T05:51:07;7.45;;;1.52;;
49376;SDS011;35253;34.688;33.040;2023-11-19T05:53:33;5.25;;;1.63;;
49376;SDS011;35253;34.688;33.040;2023-11-19T05:55:59;9.52;;;1.13;;
49376;SDS011;35253;34.688;33.040;2023-11-19T05:58:29;8.45;;;2.92;;
49376;SDS011;35253;34.688;33.040;2023-11-19T06:00:55;6.18;;;1.40;;
49376;SDS011;35253;34.688;33.040;2023-11-19T06:03:26;6.65;;;1.38;;
49376;SDS011;35253;34.688;33.040;2023-11-19T06:05:51;9.60;;;1.80;;
49376;SDS011;35253;34.688;33.040;2023-11-19T06:08:17;9.13;;;1.70;;
49376;SDS011;35253;34.688;33.040;2023-11-19T06:10:45;11.75;;;2.63;;
49376;SDS011;35253;34.688;33.040;2023-11-19T06:13:15;8.63;;;2.47;;
49376;SDS011;35253;34.688;33.040;2023-11-19T06:15:44;7.15;;;2.05;;
49376;SDS011;35253;34.688;33.040;2023-11-19T06:18:09;7.15;;;1.50;;
49376;SDS011;35253;34.688;33.040;2023-11-19T06:20:37;12.70;;;3.78;;
49376;SDS011;35253;34.688;33.040;2023-11-19T06:23:03;10.07;;;3.35;;
49376;SDS011;35253;34.688;33.040;2023-11-19T06:25:28;5.15;;;2.28;;
49376;SDS011;35253;34.688;33.040;2023-11-19T06:27:54;8.65;;;3.88;;
49376;SDS011;35253;34.688;33.040;2023-11-19T06:30:20;5.28;;;2.42;;
49376;SDS011;35253;34.688;33.040;2023-11-19T06:32:46;10.25;;;2.55;;
49376;SDS011;35253;34.688;33.040;2023-11-19T06:35:12;10.07;;;3.55;;
49376;SDS011;35253;34.688;33.040;2023-11-19T06:37:39;5.75;;;3.00;;
49376;SDS011;35253;34.688;33.040;2023-11-19T06:40:06;4.93;;;1.83;;
49376;SDS011;35253;34.688;33.040;2023-11-19T06:42:34;7.57;;;1.77;;
49376;SDS011;35253;34.688;33.040;2023-11-19T06:45:00;9.35;;;1.85;;
49376;SDS011;35253;34.688;33.040;2023-11-19T06:47:26;7.53;;;2.45;;
49376;SDS011;35253;34.688;33.040;2023-11-19T06:49:53;17.17;;;4.78;;
49376;SDS011;35253;34.688;33.040;2023-11-19T06:52:19;7.60;;;1.42;;
49376;SDS011;35253;34.688;33.040;2023-11-19T06:54:45;7.53;;;1.85;;
49376;SDS011;35253;34.688;33.040;2023-11-19T06:57:11;4.78;;;1.70;;
49376;SDS011;35253;34.688;33.040;2023-11-19T06:59:37;10.05;;;1.80;;
49376;SDS011;35253;34.688;33.040;2023-11-19T07:02:04;6.55;;;2.55;;
49376;SDS011;35253;34.688;33.040;2023-11-19T07:04:30;6.80;;;1.58;;
49376;SDS011;35253;34.688;33.040;2023-11-19T07:06:56;4.50;;;1.05;;
49376;SDS011;35253;34.688;33.040;2023-11-19T07:09:22;4.25;;;1.17;;
49376;SDS011;35253;34.688;33.040;2023-11-19T07:11:48;8.00;;;2.33;;
49376;SDS011;35253;34.688;33.040;2023-11-19T07:14:16;6.07;;;1.23;;
49376;SDS011;35253;34.688;33.040;2023-11-19T07:16:43;4.75;;;1.35;;
49376;SDS011;35253;34.688;33.040;2023-11-19T07:19:08;7.97;;;1.45;;
49376;SDS011;35253;34.688;33.040;2023-11-19T07:21:34;8.93;;;1.70;;
49376;SDS011;35253;34.688;33.040;2023-11-19T07:24:02;7.38;;;3.33;;
49376;SDS011;35253;34.688;33.040;2023-11-19T07:26:28;9.48;;;1.58;;
49376;SDS011;35253;34.688;33.040;2023-11-19T07:28:54;5.95;;;2.10;;
49376;SDS011;35253;34.688;33.040;2023-11-19T07:31:20;7.53;;;1.35;;
49376;SDS011;35253;34.688;33.040;2023-11-19T07:33:46;4.80;;;0.95;;
49376;SDS011;35253;34.688;33.040;2023-11-19T07:36:13;6.22;;;1.08;;
49376;SDS011;35253;34.688;33.040;2023-11-19T07:38:39;8.70;;;1.20;;
49376;SDS011;35253;34.688;33.040;2023-11-19T07:41:05;9.82;;;1.42;;
49376;SDS011;35253;34.688;33.040;2023-11-19T07:43:32;10.98;;;1.70;;
49376;SDS011;35253;34.688;33.040;2023-11-19T07:45:58;3.15;;;1.02;;
49376;SDS011;35253;34.688;33.040;2023-11-19T07:48:24;5.72;;;1.20;;
49376;SDS011;35253;34.688;33.040;2023-11-19T07:50:51;12.93;;;1.88;;
49376;SDS011;35253;34.688;33.040;2023-11-19T07:53:17;3.97;;;1.38;;
49376;SDS011;35253;34.688;33.040;2023-11-19T07:55:43;3.70;;;1.60;;
49376;SDS011;35253;34.688;33.040;2023-11-19T07:58:09;7.40;;;1.20;;
49376;SDS011;35253;34.688;33.040;2023-11-19T08:00:35;9.65;;;1.90;;
49376;SDS011;35253;34.688;33.040;2023-11-19T08:03:02;5.30;;;1.25;;
49376;SDS011;35253;34.688;33.040;2023-11-19T08:05:29;9.90;;;2.15;;
49376;SDS011;35253;34.688;33.040;2023-11-19T08:07:56;7.45;;;2.42;;
49376;SDS011;35253;34.688;33.040;2023-11-19T08:10:21;5.10;;;1.42;;
49376;SDS011;35253;34.688;33.040;2023-11-19T08:12:47;7.65;;;0.82;;
49376;SDS011;35253;34.688;33.040;2023-11-19T08:15:13;5.13;;;1.17;;
49376;SDS011;35253;34.688;33.040;2023-11-19T08:17:40;4.90;;;0.90;;
49376;SDS011;35253;34.688;33.040;2023-11-19T08:20:08;3.97;;;1.05;;
49376;SDS011;35253;34.688;33.040;2023-11-19T08:22:38;3.95;;;1.02;;
49376;SDS011;35253;34.688;33.040;2023-11-19T08:25:04;7.65;;;2.38;;
49376;SDS011;35253;34.688;33.040;2023-11-19T08:27:31;5.85;;;1.45;;
49376;SDS011;35253;34.688;33.040;2023-11-19T08:29:57;3.47;;;0.85;;
49376;SDS011;35253;34.688;33.040;2023-11-19T08:32:23;4.80;;;0.90;;
49376;SDS011;35253;34.688;33.040;2023-11-19T08:34:51;3.80;;;1.13;;
49376;SDS011;35253;34.688;33.040;2023-11-19T08:37:17;10.20;;;3.20;;
49376;SDS011;35253;34.688;33.040;2023-11-19T08:39:46;6.43;;;1.33;;
49376;SDS011;35253;34.688;33.040;2023-11-19T08:42:12;5.00;;;1.95;;
49376;SDS011;35253;34.688;33.040;2023-11-19T08:44:38;3.00;;;1.25;;
49376;SDS011;35253;34.688;33.040;2023-11-19T08:47:04;7.50;;;0.90;;
49376;SDS011;35253;34.688;33.040;2023-11-19T08:49:31;6.57;;;0.90;;
49376;SDS011;35253;34.688;33.040;2023-11-19T08:51:57;12.00;;;4.55;;
49376;SDS011;35253;34.688;33.040;2023-11-19T08:54:22;4.28;;;1.67;;
49376;SDS011;35253;34.688;33.040;2023-11-19T08:56:48;5.13;;;1.58;;
49376;SDS011;35253;34.688;33.040;2023-11-19T08:59:14;2.90;;;0.70;;
49376;SDS011;35253;34.688;33.040;2023-11-19T09:01:40;4.75;;;1.17;;
49376;SDS011;35253;34.688;33.040;2023-11-19T09:04:06;6.97;;;3.55;;
49376;SDS011;35253;34.688;33.040;2023-11-19T09:06:32;6.18;;;1.67;;
49376;SDS011;35253;34.688;33.040;2023-11-19T09:08:57;3.20;;;1.20;;
49376;SDS011;35253;34.688;33.040;2023-11-19T09:11:27;7.23;;;1.20;;
49376;SDS011;35253;34.688;33.040;2023-11-19T09:13:52;4.10;;;1.73;;
49376;SDS011;35253;34.688;33.040;2023-11-19T09:16:18;3.10;;;1.02;;
49376;SDS011;35253;34.688;33.040;2023-11-19T09:18:44;9.95;;;3.25;;
49376;SDS011;35253;34.688;33.040;2023-11-19T09:21:12;4.78;;;1.38;;
49376;SDS011;35253;34.688;33.040;2023-11-19T09:23:38;4.18;;;1.15;;
49376;SDS011;35253;34.688;33.040;2023-11-19T09:26:05;3.28;;;1.40;;
49376;SDS011;35253;34.688;33.040;2023-11-19T09:28:31;8.05;;;2.70;;
49376;SDS011;35253;34.688;33.040;2023-11-19T09:30:57;6.10;;;1.75;;
49376;SDS011;35253;34.688;33.040;2023-11-19T09:33:24;6.63;;;1.98;;
49376;SDS011;35253;34.688;33.040;2023-11-19T09:35:49;3.95;;;1.25;;
49376;SDS011;35253;34.688;33.040;2023-11-19T09:38:16;8.68;;;2.80;;
49376;SDS011;35253;34.688;33.040;2023-11-19T09:40:42;3.92;;;0.88;;
49376;SDS011;35253;34.688;33.040;2023-11-19T09:43:08;7.97;;;3.08;;
49376;SDS011;35253;34.688;33.040;2023-11-19T09:45:40;5.55;;;1.65;;
49376;SDS011;35253;34.688;33.040;2023-11-19T09:48:14;8.15;;;2.67;;
49376;SDS011;35253;34.688;33.040;2023-11-19T09:50:44;8.77;;;1.15;;
49376;SDS011;35253;34.688;33.040;2023-11-19T09:53:14;4.22;;;1.00;;
49376;SDS011;35253;34.688;33.040;2023-11-19T09:55:40;4.78;;;1.05;;
49376;SDS011;35253;34.688;33.040;2023-11-19T09:58:07;2.33;;;0.80;;
49376;SDS011;35253;34.688;33.040;2023-11-19T10:00:33;6.53;;;1.55;;
49376;SDS011;35253;34.688;33.040;2023-11-19T10:02:59;9.50;;;1.77;;
49376;SDS011;35253;34.688;33.040;2023-11-19T10:05:25;11.68;;;4.20;;
49376;SDS011;35253;34.688;33.040;2023-11-19T10:07:52;3.10;;;0.75;;
49376;SDS011;35253;34.688;33.040;2023-11-19T10:10:18;6.47;;;1.25;;
49376;SDS011;35253;34.688;33.040;2023-11-19T10:12:47;5.38;;;0.95;;
49376;SDS011;35253;34.688;33.040;2023-11-19T10:15:25;4.13;;;0.50;;
49376;SDS011;35253;34.688;33.040;2023-11-19T10:17:52;10.70;;;1.10;;
49376;SDS011;35253;34.688;33.040;2023-11-19T10:20:20;4.88;;;1.63;;
49376;SDS011;35253;34.688;33.040;2023-11-19T10:22:46;11.32;;;6.03;;
49376;SDS011;35253;34.688;33.040;2023-11-19T10:25:21;5.35;;;2.88;;
49376;SDS011;35253;34.688;33.040;2023-11-19T10:27:49;5.57;;;1.45;;
49376;SDS011;35253;34.688;33.040;2023-11-19T10:30:22;16.75;;;4.30;;
49376;SDS011;35253;34.688;33.040;2023-11-19T10:35:36;10.43;;;3.95;;
49376;SDS011;35253;34.688;33.040;2023-11-19T10:38:19;8.07;;;2.00;;
49376;SDS011;35253;34.688;33.040;2023-11-19T10:40:45;3.92;;;1.35;;
49376;SDS011;35253;34.688;33.040;2023-11-19T10:43:12;11.80;;;4.40;;
49376;SDS011;35253;34.688;33.040;2023-11-19T10:45:38;7.80;;;2.80;;
49376;SDS011;35253;34.688;33.040;2023-11-19T10:48:04;17.38;;;3.08;;
49376;SDS011;35253;34.688;33.040;2023-11-19T10:50:34;8.13;;;2.75;;
49376;SDS011;35253;34.688;33.040;2023-11-19T10:53:01;8.77;;;1.77;;
49376;SDS011;35253;34.688;33.040;2023-11-19T10:55:29;5.95;;;1.55;;
49376;SDS011;35253;34.688;33.040;2023-11-19T10:58:03;5.47;;;1.95;;
49376;SDS011;35253;34.688;33.040;2023-11-19T11:00:33;6.65;;;2.28;;
49376;SDS011;35253;34.688;33.040;2023-11-19T11:03:17;8.15;;;2.88;;
49376;SDS011;35253;34.688;33.040;2023-11-19T11:05:48;6.72;;;2.22;;
49376;SDS011;35253;34.688;33.040;2023-11-19T11:08:15;8.25;;;3.88;;
49376;SDS011;35253;34.688;33.040;2023-11-19T11:10:54;6.38;;;1.42;;
49376;SDS011;35253;34.688;33.040;2023-11-19T11:13:22;11.75;;;4.85;;
49376;SDS011;35253;34.688;33.040;2023-11-19T11:15:49;12.40;;;5.97;;
49376;SDS011;35253;34.688;33.040;2023-11-19T11:18:16;5.43;;;1.40;;
49376;SDS011;35253;34.688;33.040;2023-11-19T11:20:46;11.73;;;4.53;;
49376;SDS011;35253;34.688;33.040;2023-11-19T11:29:16;6.78;;;1.40;;
49376;SDS011;35253;34.688;33.040;2023-11-19T11:32:03;7.70;;;2.83;;
49376;SDS011;35253;34.688;33.040;2023-11-19T11:37:26;4.10;;;1.45;;
49376;SDS011;35253;34.688;33.040;2023-11-19T11:40:02;7.35;;;2.88;;
49376;SDS011;35253;34.688;33.040;2023-11-19T11:42:38;13.07;;;2.55;;
49376;SDS011;35253;34.688;33.040;2023-11-19T11:45:07;5.75;;;1.60;;
49376;SDS011;35253;34.688;33.040;2023-11-19T11:50:16;7.97;;;2.70;;
49376;SDS011;35253;34.688;33.040;2023-11-19T11:55:24;7.53;;;3.83;;
49376;SDS011;35253;34.688;33.040;2023-11-19T11:57:50;18.67;;;5.88;;
49376;SDS011;35253;34.688;33.040;2023-11-19T12:00:22;10.18;;;5.20;;
49376;SDS011;35253;34.688;33.040;2023-11-19T12:02:51;11.93;;;3.78;;
49376;SDS011;35253;34.688;33.040;2023-11-19T12:05:17;11.88;;;2.67;;
49376;SDS011;35253;34.688;33.040;2023-11-19T12:07:54;10.40;;;3.50;;
49376;SDS011;35253;34.688;33.040;2023-11-19T12:10:25;25.85;;;11.50;;
49376;SDS011;35253;34.688;33.040;2023-11-19T12:12:58;22.33;;;9.55;;
49376;SDS011;35253;34.688;33.040;2023-11-19T12:15:24;19.52;;;9.65;;
49376;SDS011;35253;34.688;33.040;2023-11-19T12:17:51;21.27;;;8.85;;
49376;SDS011;35253;34.688;33.040;2023-11-19T12:20:18;12.02;;;5.28;;
49376;SDS011;35253;34.688;33.040;2023-11-19T12:22:45;8.32;;;1.88;;
49376;SDS011;35253;34.688;33.040;2023-11-19T12:25:14;21.65;;;8.93;;
49376;SDS011;35253;34.688;33.040;2023-11-19T12:27:42;5.40;;;2.42;;
49376;SDS011;35253;34.688;33.040;2023-11-19T12:30:09;13.52;;;3.42;;
49376;SDS011;35253;34.688;33.040;2023-11-19T12:32:39;22.25;;;7.80;;
49376;SDS011;35253;34.688;33.040;2023-11-19T12:35:09;12.38;;;4.07;;
49376;SDS011;35253;34.688;33.040;2023-11-19T12:37:41;6.80;;;1.50;;
49376;SDS011;35253;34.688;33.040;2023-11-19T12:40:19;7.22;;;2.28;;
49376;SDS011;35253;34.688;33.040;2023-11-19T12:42:45;5.25;;;1.67;;
49376;SDS011;35253;34.688;33.040;2023-11-19T12:45:14;6.32;;;1.25;;
49376;SDS011;35253;34.688;33.040;2023-11-19T12:47:41;9.10;;;3.70;;
49376;SDS011;35253;34.688;33.040;2023-11-19T12:50:07;4.07;;;1.15;;
49376;SDS011;35253;34.688;33.040;2023-11-19T12:52:37;6.00;;;2.05;;
49376;SDS011;35253;34.688;33.040;2023-11-19T12:55:03;2.83;;;1.20;;
49376;SDS011;35253;34.688;33.040;2023-11-19T12:57:47;13.65;;;5.88;;
49376;SDS011;35253;34.688;33.040;2023-11-19T13:00:20;9.27;;;2.90;;
49376;SDS011;35253;34.688;33.040;2023-11-19T13:02:53;5.00;;;2.28;;
49376;SDS011;35253;34.688;33.040;2023-11-19T13:05:24;8.70;;;2.40;;
49376;SDS011;35253;34.688;33.040;2023-11-19T13:08:03;4.05;;;1.88;;
49376;SDS011;35253;34.688;33.040;2023-11-19T13:10:30;5.90;;;3.55;;
49376;SDS011;35253;34.688;33.040;2023-11-19T13:13:07;4.28;;;1.30;;
49376;SDS011;35253;34.688;33.040;2023-11-19T13:15:34;4.90;;;1.38;;
49376;SDS011;35253;34.688;33.040;2023-11-19T13:18:00;9.57;;;3.08;;
49376;SDS011;35253;34.688;33.040;2023-11-19T13:20:27;7.43;;;4.13;;
49376;SDS011;35253;34.688;33.040;2023-11-19T13:23:00;10.23;;;6.72;;
49376;SDS011;35253;34.688;33.040;2023-11-19T13:25:27;4.10;;;1.67;;
49376;SDS011;35253;34.688;33.040;2023-11-19T13:27:53;3.70;;;1.20;;
49376;SDS011;35253;34.688;33.040;2023-11-19T13:30:19;2.67;;;0.95;;
49376;SDS011;35253;34.688;33.040;2023-11-19T13:32:46;2.58;;;0.65;;
49376;SDS011;35253;34.688;33.040;2023-11-19T13:35:12;3.85;;;1.13;;
49376;SDS011;35253;34.688;33.040;2023-11-19T13:37:38;4.25;;;0.77;;
49376;SDS011;35253;34.688;33.040;2023-11-19T13:40:05;4.28;;;1.52;;
49376;SDS011;35253;34.688;33.040;2023-11-19T13:42:42;3.30;;;1.45;;
49376;SDS011;35253;34.688;33.040;2023-11-19T13:47:37;3.17;;;1.20;;
49376;SDS011;35253;34.688;33.040;2023-11-19T13:50:09;2.05;;;0.65;;
49376;SDS011;35253;34.688;33.040;2023-11-19T13:52:39;4.55;;;0.77;;
49376;SDS011;35253;34.688;33.040;2023-11-19T13:55:06;6.55;;;2.03;;
49376;SDS011;35253;34.688;33.040;2023-11-19T13:57:33;5.72;;;2.30;;
49376;SDS011;35253;34.688;33.040;2023-11-19T14:00:03;8.20;;;1.65;;
49376;SDS011;35253;34.688;33.040;2023-11-19T14:02:36;4.03;;;2.15;;
49376;SDS011;35253;34.688;33.040;2023-11-19T14:05:01;11.05;;;3.53;;
49376;SDS011;35253;34.688;33.040;2023-11-19T14:07:27;11.48;;;5.40;;
49376;SDS011;35253;34.688;33.040;2023-11-19T14:09:53;6.57;;;2.30;;
49376;SDS011;35253;34.688;33.040;2023-11-19T14:12:19;2.92;;;1.70;;
49376;SDS011;35253;34.688;33.040;2023-11-19T14:14:45;5.30;;;1.73;;
49376;SDS011;35253;34.688;33.040;2023-11-19T14:17:11;3.38;;;0.80;;
49376;SDS011;35253;34.688;33.040;2023-11-19T14:19:37;4.90;;;1.20;;
49376;SDS011;35253;34.688;33.040;2023-11-19T14:22:04;3.05;;;1.05;;
49376;SDS011;35253;34.688;33.040;2023-11-19T14:24:30;3.45;;;0.90;;
49376;SDS011;35253;34.688;33.040;2023-11-19T14:26:56;3.08;;;1.25;;
49376;SDS011;35253;34.688;33.040;2023-11-19T14:29:24;3.20;;;1.05;;
49376;SDS011;35253;34.688;33.040;2023-11-19T14:31:51;3.50;;;1.05;;
49376;SDS011;35253;34.688;33.040;2023-11-19T14:34:19;5.35;;;0.80;;
49376;SDS011;35253;34.688;33.040;2023-11-19T14:36:45;5.85;;;1.83;;
49376;SDS011;35253;34.688;33.040;2023-11-19T14:39:10;1.50;;;0.77;;
49376;SDS011;35253;34.688;33.040;2023-11-19T14:41:36;2.33;;;1.40;;
49376;SDS011;35253;34.688;33.040;2023-11-19T14:44:02;3.88;;;1.10;;
49376;SDS011;35253;34.688;33.040;2023-11-19T14:46:28;5.03;;;0.90;;
49376;SDS011;35253;34.688;33.040;2023-11-19T14:48:54;9.55;;;1.40;;
49376;SDS011;35253;34.688;33.040;2023-11-19T14:51:20;3.20;;;1.30;;